Aviation Digital Data Service (ADDS)

Output produced by METARs form (0335 UTC 26 May 2015)
found at http://www.aviationweather.gov/adds/metars/
 
KDUJ 260253Z AUTO 22007KT 10SM OVC080 24/15 A3014 RMK AO2 SLP192 T02390150 53005
KDUJ 260153Z AUTO 22006KT 10SM BKN100 23/14 A3014 RMK AO2 SLP192 T02330144
KDUJ 260053Z AUTO 21005KT 10SM SCT075 24/14 A3013 RMK AO2 SLP189 T02390139
KDUJ 252353Z AUTO 22007KT 10SM SCT075 26/14 A3013 RMK AO2 SLP189 T02560139 10289 20250 55004
KDUJ 252253Z AUTO 20008G20KT 10SM CLR 27/14 A3013 RMK AO2 SLP189 T02670139
KDUJ 252153Z AUTO 22010G20KT 10SM BKN065 BKN080 BKN095 27/13 A3013 RMK AO2 SLP192 T02670133
KDUJ 252053Z AUTO 22009G17KT 10SM SCT060 BKN095 27/14 A3014 RMK AO2 SLP194 T02720139 56011
KDUJ 251953Z AUTO 23009KT 10SM SCT055 BKN080 28/13 A3015 RMK AO2 SLP195 T02830133
KDUJ 251853Z AUTO 23010G22KT 10SM FEW060 SCT100 28/13 A3016 RMK AO2 SLP201 T02780128
KDUJ 251753Z AUTO 21010G18KT 10SM FEW055 28/13 A3017 RMK AO2 SLP204 T02780128 10278 20194 56013
KDUJ 251653Z AUTO 24011G20KT 10SM FEW055 27/12 A3018 RMK AO2 SLP207 T02670122
KDUJ 251553Z AUTO 24014KT 10SM CLR 27/12 A3020 RMK AO2 SLP214 T02670122
KDUJ 251453Z AUTO 21009KT 10SM CLR 24/12 A3022 RMK AO2 SLP220 T02440117 58002
KDUJ 251353Z AUTO 22010KT 10SM CLR 23/11 A3022 RMK AO2 SLP222 T02280111
KDUJ 251253Z AUTO 21010KT 10SM CLR 21/11 A3022 RMK AO2 SLP223 T02110106
KDUJ 251153Z AUTO 23006KT 10SM CLR 19/11 A3022 RMK AO2 SLP223 T01940106 10194 20144 53009
KDUJ 251053Z AUTO 21005KT 10SM CLR 18/09 A3021 RMK AO2 SLP221 T01780094
KDUJ 250953Z AUTO 19004KT 10SM CLR 17/09 A3020 RMK AO2 SLP216 T01720089
KDUJ 250853Z AUTO 17004KT 10SM CLR 17/08 A3020 RMK AO2 SLP214 T01720083 55005
KDUJ 250753Z AUTO 00000KT 10SM CLR 17/08 A3019 RMK AO2 SLP213 T01720078
KDUJ 250653Z AUTO 05003KT 10SM CLR 16/08 A3020 RMK AO2 SLP216 T01560083
KDUJ 250553Z AUTO VRB04KT 10SM BKN110 19/06 A3021 RMK AO2 SLP218 T01890061 10228 20183 56008
KDUJ 250453Z AUTO 15005KT 10SM CLR 19/06 A3022 RMK AO2 SLP222 T01890061 402610067
KDUJ 250353Z AUTO 14004KT 10SM BKN110 19/07 A3023 RMK AO2 SLP226 T01940072
KDUJ 250253Z AUTO 14003KT 10SM OVC110 20/07 A3024 RMK AO2 SLP229 T02000072 55004
KDUJ 250153Z AUTO 14004KT 10SM BKN110 20/08 A3024 RMK AO2 SLP229 T02000078
KDUJ 250053Z AUTO 00000KT 10SM FEW120 20/08 A3024 RMK AO2 SLP233 T02000078
KDUJ 242353Z AUTO 00000KT 10SM CLR 23/07 A3025 RMK AO2 SLP238 T02280067 10261 20222 55004
KDUJ 242253Z AUTO 00000KT 10SM CLR 23/07 A3025 RMK AO2 SLP238 T02330072
KDUJ 242153Z AUTO 24006KT 10SM CLR 23/07 A3026 RMK AO2 SLP243 T02330072
KDUJ 242053Z AUTO 24006KT 10SM CLR 25/06 A3027 RMK AO2 SLP244 T02500056 56015
KDUJ 241953Z AUTO 23008KT 10SM CLR 24/06 A3028 RMK AO2 SLP247 T02440056
KDUJ 241853Z AUTO 22010G19KT 10SM FEW070 26/06 A3029 RMK AO2 SLP251 T02610061
KDUJ 241753Z AUTO VRB06KT 10SM CLR 25/06 A3031 RMK AO2 SLP259 T02500061 10250 20128 58009
KDUJ 241653Z AUTO 24007G19KT 200V270 10SM CLR 24/06 A3033 RMK AO2 SLP265 T02440056
KDUJ 241553Z AUTO 25012KT 10SM CLR 23/06 A3034 RMK AO2 SLP269 T02330056